METAR Data
IDs: Format: Raw Decoded Include TAF

Data at: 0515 UTC 26 May 2022

SABE 260500Z 17006KT 110V220 CAVOK 09/07 Q1026 NOSIG RMK PP000